sensor_id;sensor_type;location;lat;lon;timestamp;P1;durP1;ratioP1;P2;durP2;ratioP2
49722;SDS011;43484;43.608;1.458;2023-04-15T00:01:03;42.55;;;5.60;;
49722;SDS011;43484;43.608;1.458;2023-04-15T00:03:31;39.78;;;5.82;;
49722;SDS011;43484;43.608;1.458;2023-04-15T00:06:00;39.33;;;5.40;;
49722;SDS011;43484;43.608;1.458;2023-04-15T00:08:27;46.42;;;6.10;;
49722;SDS011;43484;43.608;1.458;2023-04-15T00:10:55;46.13;;;5.20;;
49722;SDS011;43484;43.608;1.458;2023-04-15T00:13:21;41.90;;;6.32;;
49722;SDS011;43484;43.608;1.458;2023-04-15T00:15:48;54.83;;;5.72;;
49722;SDS011;43484;43.608;1.458;2023-04-15T00:18:15;36.35;;;5.57;;
49722;SDS011;43484;43.608;1.458;2023-04-15T00:20:42;43.15;;;5.78;;
49722;SDS011;43484;43.608;1.458;2023-04-15T00:23:08;49.00;;;5.82;;
49722;SDS011;43484;43.608;1.458;2023-04-15T00:25:35;46.78;;;5.90;;
49722;SDS011;43484;43.608;1.458;2023-04-15T00:28:01;40.72;;;6.28;;
49722;SDS011;43484;43.608;1.458;2023-04-15T00:30:29;45.83;;;6.13;;
49722;SDS011;43484;43.608;1.458;2023-04-15T00:32:56;48.38;;;7.10;;
49722;SDS011;43484;43.608;1.458;2023-04-15T00:35:23;46.92;;;4.78;;
49722;SDS011;43484;43.608;1.458;2023-04-15T00:37:50;46.47;;;6.82;;
49722;SDS011;43484;43.608;1.458;2023-04-15T00:40:17;51.13;;;6.15;;
49722;SDS011;43484;43.608;1.458;2023-04-15T00:42:46;34.13;;;5.97;;
49722;SDS011;43484;43.608;1.458;2023-04-15T00:45:13;43.53;;;6.38;;
49722;SDS011;43484;43.608;1.458;2023-04-15T00:47:42;40.35;;;5.25;;
49722;SDS011;43484;43.608;1.458;2023-04-15T00:50:09;53.10;;;6.30;;
49722;SDS011;43484;43.608;1.458;2023-04-15T00:52:38;37.45;;;6.18;;
49722;SDS011;43484;43.608;1.458;2023-04-15T00:55:06;43.30;;;5.05;;
49722;SDS011;43484;43.608;1.458;2023-04-15T00:57:34;48.58;;;7.38;;
49722;SDS011;43484;43.608;1.458;2023-04-15T01:00:01;29.98;;;4.93;;
49722;SDS011;43484;43.608;1.458;2023-04-15T01:02:30;34.35;;;4.22;;
49722;SDS011;43484;43.608;1.458;2023-04-15T01:04:57;45.92;;;6.25;;
49722;SDS011;43484;43.608;1.458;2023-04-15T01:07:23;43.05;;;6.30;;
49722;SDS011;43484;43.608;1.458;2023-04-15T01:09:50;29.40;;;4.45;;
49722;SDS011;43484;43.608;1.458;2023-04-15T01:12:18;37.35;;;6.13;;
49722;SDS011;43484;43.608;1.458;2023-04-15T01:14:45;40.28;;;5.28;;
49722;SDS011;43484;43.608;1.458;2023-04-15T01:17:12;37.25;;;5.68;;
49722;SDS011;43484;43.608;1.458;2023-04-15T01:19:39;35.28;;;4.60;;
49722;SDS011;43484;43.608;1.458;2023-04-15T01:22:06;34.80;;;4.75;;
49722;SDS011;43484;43.608;1.458;2023-04-15T01:24:33;34.70;;;4.60;;
49722;SDS011;43484;43.608;1.458;2023-04-15T01:27:02;38.53;;;5.18;;
49722;SDS011;43484;43.608;1.458;2023-04-15T01:29:31;43.80;;;6.20;;
49722;SDS011;43484;43.608;1.458;2023-04-15T01:31:58;46.05;;;6.15;;
49722;SDS011;43484;43.608;1.458;2023-04-15T01:34:25;39.70;;;4.93;;
49722;SDS011;43484;43.608;1.458;2023-04-15T01:36:52;33.03;;;4.47;;
49722;SDS011;43484;43.608;1.458;2023-04-15T01:39:19;38.72;;;5.00;;
49722;SDS011;43484;43.608;1.458;2023-04-15T01:41:46;36.20;;;4.60;;
49722;SDS011;43484;43.608;1.458;2023-04-15T01:44:12;26.15;;;3.60;;
49722;SDS011;43484;43.608;1.458;2023-04-15T01:46:39;26.77;;;4.90;;
49722;SDS011;43484;43.608;1.458;2023-04-15T01:49:05;22.33;;;3.10;;
49722;SDS011;43484;43.608;1.458;2023-04-15T01:51:32;27.10;;;3.17;;
49722;SDS011;43484;43.608;1.458;2023-04-15T01:53:59;31.40;;;2.67;;
49722;SDS011;43484;43.608;1.458;2023-04-15T01:56:26;21.90;;;3.30;;
49722;SDS011;43484;43.608;1.458;2023-04-15T01:58:52;12.75;;;2.08;;
49722;SDS011;43484;43.608;1.458;2023-04-15T02:01:19;19.08;;;1.92;;
49722;SDS011;43484;43.608;1.458;2023-04-15T02:03:48;14.65;;;1.92;;
49722;SDS011;43484;43.608;1.458;2023-04-15T02:06:14;22.83;;;3.42;;
49722;SDS011;43484;43.608;1.458;2023-04-15T02:08:41;21.13;;;3.13;;
49722;SDS011;43484;43.608;1.458;2023-04-15T02:11:08;14.85;;;2.45;;
49722;SDS011;43484;43.608;1.458;2023-04-15T02:13:35;24.92;;;2.55;;
49722;SDS011;43484;43.608;1.458;2023-04-15T02:16:02;16.73;;;2.15;;
49722;SDS011;43484;43.608;1.458;2023-04-15T02:18:29;16.00;;;2.25;;
49722;SDS011;43484;43.608;1.458;2023-04-15T02:20:55;22.48;;;2.90;;
49722;SDS011;43484;43.608;1.458;2023-04-15T02:23:24;19.02;;;2.40;;
49722;SDS011;43484;43.608;1.458;2023-04-15T02:25:51;21.95;;;2.70;;
49722;SDS011;43484;43.608;1.458;2023-04-15T02:28:20;21.40;;;3.00;;
49722;SDS011;43484;43.608;1.458;2023-04-15T02:30:50;22.88;;;3.20;;
49722;SDS011;43484;43.608;1.458;2023-04-15T02:33:19;19.02;;;2.88;;
49722;SDS011;43484;43.608;1.458;2023-04-15T02:35:46;23.83;;;2.78;;
49722;SDS011;43484;43.608;1.458;2023-04-15T02:38:13;21.65;;;2.83;;
49722;SDS011;43484;43.608;1.458;2023-04-15T02:40:42;17.30;;;2.13;;
49722;SDS011;43484;43.608;1.458;2023-04-15T02:43:08;19.42;;;2.58;;
49722;SDS011;43484;43.608;1.458;2023-04-15T02:45:35;15.02;;;2.15;;
49722;SDS011;43484;43.608;1.458;2023-04-15T02:48:01;19.23;;;2.22;;
49722;SDS011;43484;43.608;1.458;2023-04-15T02:50:31;28.20;;;3.58;;
49722;SDS011;43484;43.608;1.458;2023-04-15T02:52:58;26.58;;;3.72;;
49722;SDS011;43484;43.608;1.458;2023-04-15T02:55:27;24.05;;;2.20;;
49722;SDS011;43484;43.608;1.458;2023-04-15T02:57:54;22.27;;;2.53;;
49722;SDS011;43484;43.608;1.458;2023-04-15T03:00:21;32.13;;;3.55;;
49722;SDS011;43484;43.608;1.458;2023-04-15T03:02:50;19.05;;;2.22;;
49722;SDS011;43484;43.608;1.458;2023-04-15T03:05:21;35.25;;;3.22;;
49722;SDS011;43484;43.608;1.458;2023-04-15T03:07:51;23.33;;;2.90;;
49722;SDS011;43484;43.608;1.458;2023-04-15T03:10:18;23.75;;;2.65;;
49722;SDS011;43484;43.608;1.458;2023-04-15T03:12:45;22.60;;;3.45;;
49722;SDS011;43484;43.608;1.458;2023-04-15T03:15:12;21.25;;;3.17;;
49722;SDS011;43484;43.608;1.458;2023-04-15T03:17:39;16.13;;;2.25;;
49722;SDS011;43484;43.608;1.458;2023-04-15T03:20:06;16.17;;;1.80;;
49722;SDS011;43484;43.608;1.458;2023-04-15T03:22:33;14.38;;;1.85;;
49722;SDS011;43484;43.608;1.458;2023-04-15T03:24:59;11.27;;;1.65;;
49722;SDS011;43484;43.608;1.458;2023-04-15T03:27:26;17.45;;;2.13;;
49722;SDS011;43484;43.608;1.458;2023-04-15T03:29:53;12.02;;;1.70;;
49722;SDS011;43484;43.608;1.458;2023-04-15T03:32:20;11.80;;;1.80;;
49722;SDS011;43484;43.608;1.458;2023-04-15T03:34:46;11.38;;;1.20;;
49722;SDS011;43484;43.608;1.458;2023-04-15T03:37:13;7.30;;;0.80;;
49722;SDS011;43484;43.608;1.458;2023-04-15T03:39:39;6.55;;;0.98;;
49722;SDS011;43484;43.608;1.458;2023-04-15T03:42:06;5.30;;;1.00;;
49722;SDS011;43484;43.608;1.458;2023-04-15T03:44:33;8.85;;;1.27;;
49722;SDS011;43484;43.608;1.458;2023-04-15T03:47:00;10.02;;;1.42;;
49722;SDS011;43484;43.608;1.458;2023-04-15T03:49:26;11.15;;;1.35;;
49722;SDS011;43484;43.608;1.458;2023-04-15T03:51:53;10.38;;;1.75;;
49722;SDS011;43484;43.608;1.458;2023-04-15T03:54:20;9.65;;;1.58;;
49722;SDS011;43484;43.608;1.458;2023-04-15T03:56:47;14.18;;;1.95;;
49722;SDS011;43484;43.608;1.458;2023-04-15T03:59:14;12.63;;;1.20;;
49722;SDS011;43484;43.608;1.458;2023-04-15T04:01:40;15.10;;;1.83;;
49722;SDS011;43484;43.608;1.458;2023-04-15T04:04:07;16.42;;;1.80;;
49722;SDS011;43484;43.608;1.458;2023-04-15T04:06:34;12.13;;;1.52;;
49722;SDS011;43484;43.608;1.458;2023-04-15T04:09:01;12.30;;;1.70;;
49722;SDS011;43484;43.608;1.458;2023-04-15T04:11:28;11.80;;;1.75;;
49722;SDS011;43484;43.608;1.458;2023-04-15T04:13:55;13.65;;;1.48;;
49722;SDS011;43484;43.608;1.458;2023-04-15T04:16:21;16.33;;;2.28;;
49722;SDS011;43484;43.608;1.458;2023-04-15T04:18:48;15.43;;;2.30;;
49722;SDS011;43484;43.608;1.458;2023-04-15T04:21:15;15.82;;;1.67;;
49722;SDS011;43484;43.608;1.458;2023-04-15T04:23:42;13.98;;;2.47;;
49722;SDS011;43484;43.608;1.458;2023-04-15T04:26:08;21.73;;;2.72;;
49722;SDS011;43484;43.608;1.458;2023-04-15T04:28:35;16.50;;;2.13;;
49722;SDS011;43484;43.608;1.458;2023-04-15T04:31:02;19.90;;;2.58;;
49722;SDS011;43484;43.608;1.458;2023-04-15T04:33:28;20.60;;;2.58;;
49722;SDS011;43484;43.608;1.458;2023-04-15T04:35:56;13.45;;;2.00;;
49722;SDS011;43484;43.608;1.458;2023-04-15T04:38:22;20.30;;;2.58;;
49722;SDS011;43484;43.608;1.458;2023-04-15T04:40:49;13.60;;;2.15;;
49722;SDS011;43484;43.608;1.458;2023-04-15T04:43:15;19.38;;;2.15;;
49722;SDS011;43484;43.608;1.458;2023-04-15T04:45:42;27.00;;;2.33;;
49722;SDS011;43484;43.608;1.458;2023-04-15T04:48:09;25.83;;;2.58;;
49722;SDS011;43484;43.608;1.458;2023-04-15T04:50:35;22.23;;;3.15;;
49722;SDS011;43484;43.608;1.458;2023-04-15T04:53:02;12.77;;;1.92;;
49722;SDS011;43484;43.608;1.458;2023-04-15T04:55:29;30.30;;;3.00;;
49722;SDS011;43484;43.608;1.458;2023-04-15T04:57:57;17.15;;;2.50;;
49722;SDS011;43484;43.608;1.458;2023-04-15T05:00:23;24.85;;;2.88;;
49722;SDS011;43484;43.608;1.458;2023-04-15T05:02:50;23.95;;;3.33;;
49722;SDS011;43484;43.608;1.458;2023-04-15T05:05:17;29.33;;;3.65;;
49722;SDS011;43484;43.608;1.458;2023-04-15T05:07:44;24.15;;;3.58;;
49722;SDS011;43484;43.608;1.458;2023-04-15T05:10:10;16.23;;;2.42;;
49722;SDS011;43484;43.608;1.458;2023-04-15T05:12:37;29.33;;;2.85;;
49722;SDS011;43484;43.608;1.458;2023-04-15T05:15:04;23.15;;;3.47;;
49722;SDS011;43484;43.608;1.458;2023-04-15T05:17:31;22.45;;;2.28;;
49722;SDS011;43484;43.608;1.458;2023-04-15T05:20:00;23.20;;;2.75;;
49722;SDS011;43484;43.608;1.458;2023-04-15T05:22:29;22.58;;;2.85;;
49722;SDS011;43484;43.608;1.458;2023-04-15T05:24:55;18.63;;;2.20;;
49722;SDS011;43484;43.608;1.458;2023-04-15T05:27:22;14.55;;;1.73;;
49722;SDS011;43484;43.608;1.458;2023-04-15T05:29:49;16.15;;;2.55;;
49722;SDS011;43484;43.608;1.458;2023-04-15T05:32:16;21.63;;;2.72;;
49722;SDS011;43484;43.608;1.458;2023-04-15T05:34:43;19.95;;;1.90;;
49722;SDS011;43484;43.608;1.458;2023-04-15T05:37:09;15.77;;;2.20;;
49722;SDS011;43484;43.608;1.458;2023-04-15T05:39:36;19.20;;;2.15;;
49722;SDS011;43484;43.608;1.458;2023-04-15T05:42:02;11.45;;;1.80;;
49722;SDS011;43484;43.608;1.458;2023-04-15T05:44:31;11.95;;;1.65;;
49722;SDS011;43484;43.608;1.458;2023-04-15T05:46:58;11.98;;;2.00;;
49722;SDS011;43484;43.608;1.458;2023-04-15T05:49:24;12.55;;;1.90;;
49722;SDS011;43484;43.608;1.458;2023-04-15T05:51:51;15.93;;;1.60;;
49722;SDS011;43484;43.608;1.458;2023-04-15T05:54:18;9.23;;;1.23;;
49722;SDS011;43484;43.608;1.458;2023-04-15T05:56:45;13.95;;;1.92;;
49722;SDS011;43484;43.608;1.458;2023-04-15T05:59:12;11.35;;;1.30;;
49722;SDS011;43484;43.608;1.458;2023-04-15T06:01:38;14.02;;;1.95;;
49722;SDS011;43484;43.608;1.458;2023-04-15T06:04:05;13.57;;;1.63;;
49722;SDS011;43484;43.608;1.458;2023-04-15T06:06:32;15.77;;;1.73;;
49722;SDS011;43484;43.608;1.458;2023-04-15T06:09:00;16.05;;;1.60;;
49722;SDS011;43484;43.608;1.458;2023-04-15T06:11:27;12.70;;;1.27;;
49722;SDS011;43484;43.608;1.458;2023-04-15T06:13:53;12.07;;;1.20;;
49722;SDS011;43484;43.608;1.458;2023-04-15T06:16:20;10.13;;;0.82;;
49722;SDS011;43484;43.608;1.458;2023-04-15T06:18:47;9.07;;;1.20;;
49722;SDS011;43484;43.608;1.458;2023-04-15T06:21:14;10.93;;;1.23;;
49722;SDS011;43484;43.608;1.458;2023-04-15T06:23:41;10.75;;;1.70;;
49722;SDS011;43484;43.608;1.458;2023-04-15T06:26:07;7.10;;;0.90;;
49722;SDS011;43484;43.608;1.458;2023-04-15T06:28:34;17.52;;;1.40;;
49722;SDS011;43484;43.608;1.458;2023-04-15T06:31:01;6.90;;;1.33;;
49722;SDS011;43484;43.608;1.458;2023-04-15T06:33:28;16.05;;;0.77;;
49722;SDS011;43484;43.608;1.458;2023-04-15T06:35:55;3.58;;;0.50;;
49722;SDS011;43484;43.608;1.458;2023-04-15T06:38:21;3.22;;;0.98;;
49722;SDS011;43484;43.608;1.458;2023-04-15T06:40:48;4.43;;;0.57;;
49722;SDS011;43484;43.608;1.458;2023-04-15T06:43:15;7.10;;;0.90;;
49722;SDS011;43484;43.608;1.458;2023-04-15T06:45:42;6.05;;;1.15;;
49722;SDS011;43484;43.608;1.458;2023-04-15T06:48:08;5.70;;;1.63;;
49722;SDS011;43484;43.608;1.458;2023-04-15T06:50:35;8.52;;;0.88;;
49722;SDS011;43484;43.608;1.458;2023-04-15T06:53:02;9.70;;;0.90;;
49722;SDS011;43484;43.608;1.458;2023-04-15T06:55:28;5.57;;;0.65;;
49722;SDS011;43484;43.608;1.458;2023-04-15T06:57:56;9.27;;;1.00;;
49722;SDS011;43484;43.608;1.458;2023-04-15T07:00:23;5.80;;;0.63;;
49722;SDS011;43484;43.608;1.458;2023-04-15T07:02:50;7.20;;;0.90;;
49722;SDS011;43484;43.608;1.458;2023-04-15T07:05:17;6.78;;;0.70;;
49722;SDS011;43484;43.608;1.458;2023-04-15T07:07:44;13.25;;;1.20;;
49722;SDS011;43484;43.608;1.458;2023-04-15T07:10:11;8.85;;;1.23;;
49722;SDS011;43484;43.608;1.458;2023-04-15T07:12:38;13.90;;;1.30;;
49722;SDS011;43484;43.608;1.458;2023-04-15T07:15:05;12.75;;;3.40;;
49722;SDS011;43484;43.608;1.458;2023-04-15T07:17:32;10.25;;;3.40;;
49722;SDS011;43484;43.608;1.458;2023-04-15T07:19:59;8.90;;;2.22;;
49722;SDS011;43484;43.608;1.458;2023-04-15T07:22:26;10.30;;;1.42;;
49722;SDS011;43484;43.608;1.458;2023-04-15T07:24:52;13.85;;;2.13;;
49722;SDS011;43484;43.608;1.458;2023-04-15T07:27:19;17.42;;;1.50;;
49722;SDS011;43484;43.608;1.458;2023-04-15T07:29:46;11.75;;;1.63;;
49722;SDS011;43484;43.608;1.458;2023-04-15T07:32:12;14.85;;;1.48;;
49722;SDS011;43484;43.608;1.458;2023-04-15T07:34:39;14.93;;;1.70;;
49722;SDS011;43484;43.608;1.458;2023-04-15T07:37:07;6.00;;;0.90;;
49722;SDS011;43484;43.608;1.458;2023-04-15T07:39:33;13.80;;;1.55;;
49722;SDS011;43484;43.608;1.458;2023-04-15T07:42:00;10.00;;;1.25;;
49722;SDS011;43484;43.608;1.458;2023-04-15T07:44:27;7.82;;;0.85;;
49722;SDS011;43484;43.608;1.458;2023-04-15T07:46:54;11.55;;;1.58;;
49722;SDS011;43484;43.608;1.458;2023-04-15T07:49:21;11.68;;;1.20;;
49722;SDS011;43484;43.608;1.458;2023-04-15T07:51:48;16.75;;;1.23;;
49722;SDS011;43484;43.608;1.458;2023-04-15T07:54:15;7.85;;;1.17;;
49722;SDS011;43484;43.608;1.458;2023-04-15T07:56:42;7.90;;;0.90;;
49722;SDS011;43484;43.608;1.458;2023-04-15T07:59:08;18.33;;;1.50;;
49722;SDS011;43484;43.608;1.458;2023-04-15T08:01:35;12.18;;;1.10;;
49722;SDS011;43484;43.608;1.458;2023-04-15T08:04:02;11.32;;;1.02;;
49722;SDS011;43484;43.608;1.458;2023-04-15T08:06:29;21.45;;;1.70;;
49722;SDS011;43484;43.608;1.458;2023-04-15T08:08:56;10.15;;;1.48;;
49722;SDS011;43484;43.608;1.458;2023-04-15T08:11:23;17.92;;;1.52;;
49722;SDS011;43484;43.608;1.458;2023-04-15T08:13:50;11.00;;;1.08;;
49722;SDS011;43484;43.608;1.458;2023-04-15T08:16:22;9.02;;;1.58;;
49722;SDS011;43484;43.608;1.458;2023-04-15T08:18:50;17.95;;;1.27;;
49722;SDS011;43484;43.608;1.458;2023-04-15T08:21:18;10.43;;;1.00;;
49722;SDS011;43484;43.608;1.458;2023-04-15T08:23:46;17.13;;;1.65;;
49722;SDS011;43484;43.608;1.458;2023-04-15T08:26:15;17.95;;;3.92;;
49722;SDS011;43484;43.608;1.458;2023-04-15T08:28:43;13.82;;;1.73;;
49722;SDS011;43484;43.608;1.458;2023-04-15T08:31:11;12.55;;;1.92;;
49722;SDS011;43484;43.608;1.458;2023-04-15T08:33:40;10.27;;;1.80;;
49722;SDS011;43484;43.608;1.458;2023-04-15T08:36:06;8.55;;;0.88;;
49722;SDS011;43484;43.608;1.458;2023-04-15T08:38:34;8.75;;;1.30;;
49722;SDS011;43484;43.608;1.458;2023-04-15T08:41:02;12.95;;;1.08;;
49722;SDS011;43484;43.608;1.458;2023-04-15T08:43:33;21.80;;;2.28;;
49722;SDS011;43484;43.608;1.458;2023-04-15T08:46:01;11.68;;;1.20;;
49722;SDS011;43484;43.608;1.458;2023-04-15T08:48:31;6.72;;;1.27;;
49722;SDS011;43484;43.608;1.458;2023-04-15T08:50:59;14.85;;;1.50;;
49722;SDS011;43484;43.608;1.458;2023-04-15T08:53:28;11.15;;;1.25;;
49722;SDS011;43484;43.608;1.458;2023-04-15T08:55:55;18.10;;;3.05;;
49722;SDS011;43484;43.608;1.458;2023-04-15T08:58:23;9.50;;;0.98;;
49722;SDS011;43484;43.608;1.458;2023-04-15T09:00:50;13.63;;;1.60;;
49722;SDS011;43484;43.608;1.458;2023-04-15T09:03:17;11.75;;;1.45;;
49722;SDS011;43484;43.608;1.458;2023-04-15T09:05:44;11.70;;;1.85;;
49722;SDS011;43484;43.608;1.458;2023-04-15T09:08:12;11.27;;;1.50;;
49722;SDS011;43484;43.608;1.458;2023-04-15T09:10:38;12.75;;;1.23;;
49722;SDS011;43484;43.608;1.458;2023-04-15T09:13:05;7.65;;;1.17;;
49722;SDS011;43484;43.608;1.458;2023-04-15T09:15:32;15.85;;;1.55;;
49722;SDS011;43484;43.608;1.458;2023-04-15T09:17:58;10.50;;;1.20;;
49722;SDS011;43484;43.608;1.458;2023-04-15T09:20:25;21.92;;;1.80;;
49722;SDS011;43484;43.608;1.458;2023-04-15T09:22:52;14.40;;;1.13;;
49722;SDS011;43484;43.608;1.458;2023-04-15T09:27:55;7.68;;;1.27;;
49722;SDS011;43484;43.608;1.458;2023-04-15T09:30:23;17.77;;;2.28;;
49722;SDS011;43484;43.608;1.458;2023-04-15T09:35:18;9.93;;;1.10;;
49722;SDS011;43484;43.608;1.458;2023-04-15T09:37:46;11.60;;;1.38;;
49722;SDS011;43484;43.608;1.458;2023-04-15T09:40:12;11.15;;;1.35;;
49722;SDS011;43484;43.608;1.458;2023-04-15T09:42:54;15.15;;;1.38;;
49722;SDS011;43484;43.608;1.458;2023-04-15T09:45:22;10.02;;;1.25;;
49722;SDS011;43484;43.608;1.458;2023-04-15T09:47:52;15.70;;;2.75;;
49722;SDS011;43484;43.608;1.458;2023-04-15T09:50:19;14.32;;;1.83;;
49722;SDS011;43484;43.608;1.458;2023-04-15T09:52:46;9.10;;;1.63;;
49722;SDS011;43484;43.608;1.458;2023-04-15T09:55:13;8.93;;;1.23;;
49722;SDS011;43484;43.608;1.458;2023-04-15T09:57:43;12.88;;;1.38;;
49722;SDS011;43484;43.608;1.458;2023-04-15T10:00:12;6.63;;;1.00;;
49722;SDS011;43484;43.608;1.458;2023-04-15T10:02:40;11.70;;;1.10;;
49722;SDS011;43484;43.608;1.458;2023-04-15T10:05:12;13.10;;;0.93;;
49722;SDS011;43484;43.608;1.458;2023-04-15T10:07:40;7.63;;;0.90;;
49722;SDS011;43484;43.608;1.458;2023-04-15T10:10:08;13.50;;;1.20;;
49722;SDS011;43484;43.608;1.458;2023-04-15T10:12:36;8.18;;;1.23;;
49722;SDS011;43484;43.608;1.458;2023-04-15T10:15:03;4.38;;;1.00;;
49722;SDS011;43484;43.608;1.458;2023-04-15T10:17:32;5.53;;;0.93;;
49722;SDS011;43484;43.608;1.458;2023-04-15T10:20:01;7.15;;;1.10;;
49722;SDS011;43484;43.608;1.458;2023-04-15T10:22:30;5.93;;;1.33;;
49722;SDS011;43484;43.608;1.458;2023-04-15T10:24:57;11.23;;;1.27;;
49722;SDS011;43484;43.608;1.458;2023-04-15T10:27:25;8.20;;;0.80;;
49722;SDS011;43484;43.608;1.458;2023-04-15T10:29:53;9.25;;;1.73;;
49722;SDS011;43484;43.608;1.458;2023-04-15T10:32:19;11.65;;;1.27;;
49722;SDS011;43484;43.608;1.458;2023-04-15T10:34:47;7.65;;;1.80;;
49722;SDS011;43484;43.608;1.458;2023-04-15T10:37:21;6.68;;;0.90;;
49722;SDS011;43484;43.608;1.458;2023-04-15T10:39:58;6.85;;;0.90;;
49722;SDS011;43484;43.608;1.458;2023-04-15T10:42:26;5.18;;;0.90;;
49722;SDS011;43484;43.608;1.458;2023-04-15T10:44:59;6.55;;;1.20;;
49722;SDS011;43484;43.608;1.458;2023-04-15T10:47:26;5.78;;;0.73;;
49722;SDS011;43484;43.608;1.458;2023-04-15T10:49:57;9.07;;;1.02;;
49722;SDS011;43484;43.608;1.458;2023-04-15T10:52:26;5.78;;;0.88;;
49722;SDS011;43484;43.608;1.458;2023-04-15T10:57:39;9.90;;;0.90;;
49722;SDS011;43484;43.608;1.458;2023-04-15T11:00:10;5.90;;;1.13;;
49722;SDS011;43484;43.608;1.458;2023-04-15T11:05:07;6.15;;;1.17;;
49722;SDS011;43484;43.608;1.458;2023-04-15T11:07:51;7.70;;;1.35;;
49722;SDS011;43484;43.608;1.458;2023-04-15T11:12:47;8.88;;;1.33;;
49722;SDS011;43484;43.608;1.458;2023-04-15T11:15:30;12.00;;;1.15;;
49722;SDS011;43484;43.608;1.458;2023-04-15T11:18:08;5.95;;;0.88;;
49722;SDS011;43484;43.608;1.458;2023-04-15T11:20:40;12.25;;;1.10;;
49722;SDS011;43484;43.608;1.458;2023-04-15T11:23:08;7.80;;;1.15;;
49722;SDS011;43484;43.608;1.458;2023-04-15T11:25:41;8.48;;;1.13;;
49722;SDS011;43484;43.608;1.458;2023-04-15T11:28:09;12.10;;;1.52;;
49722;SDS011;43484;43.608;1.458;2023-04-15T11:30:37;9.13;;;1.92;;
49722;SDS011;43484;43.608;1.458;2023-04-15T11:33:09;7.13;;;1.48;;
49722;SDS011;43484;43.608;1.458;2023-04-15T11:35:38;3.70;;;0.70;;
49722;SDS011;43484;43.608;1.458;2023-04-15T11:38:10;7.60;;;1.35;;
49722;SDS011;43484;43.608;1.458;2023-04-15T11:40:39;4.53;;;0.70;;
49722;SDS011;43484;43.608;1.458;2023-04-15T11:45:49;9.48;;;1.27;;
49722;SDS011;43484;43.608;1.458;2023-04-15T11:48:27;8.23;;;0.80;;
49722;SDS011;43484;43.608;1.458;2023-04-15T11:50:59;5.65;;;1.23;;
49722;SDS011;43484;43.608;1.458;2023-04-15T11:56:09;14.15;;;0.90;;
49722;SDS011;43484;43.608;1.458;2023-04-15T11:58:37;5.18;;;0.88;;
49722;SDS011;43484;43.608;1.458;2023-04-15T12:01:04;5.95;;;0.90;;
49722;SDS011;43484;43.608;1.458;2023-04-15T12:03:39;3.33;;;0.90;;
49722;SDS011;43484;43.608;1.458;2023-04-15T12:06:09;8.07;;;1.20;;
49722;SDS011;43484;43.608;1.458;2023-04-15T12:11:29;2.72;;;0.80;;
49722;SDS011;43484;43.608;1.458;2023-04-15T12:16:45;7.88;;;1.25;;
49722;SDS011;43484;43.608;1.458;2023-04-15T12:19:27;4.82;;;0.90;;
49722;SDS011;43484;43.608;1.458;2023-04-15T12:21:59;6.30;;;0.77;;
49722;SDS011;43484;43.608;1.458;2023-04-15T12:24:28;6.00;;;0.93;;
49722;SDS011;43484;43.608;1.458;2023-04-15T12:27:00;6.63;;;0.65;;
49722;SDS011;43484;43.608;1.458;2023-04-15T12:29:29;8.35;;;1.30;;
49722;SDS011;43484;43.608;1.458;2023-04-15T12:34:34;2.72;;;0.55;;
49722;SDS011;43484;43.608;1.458;2023-04-15T12:37:03;8.07;;;1.80;;
49722;SDS011;43484;43.608;1.458;2023-04-15T12:39:31;7.18;;;0.90;;
49722;SDS011;43484;43.608;1.458;2023-04-15T12:42:02;5.13;;;0.75;;
49722;SDS011;43484;43.608;1.458;2023-04-15T12:44:30;9.15;;;1.17;;
49722;SDS011;43484;43.608;1.458;2023-04-15T12:46:58;3.75;;;1.00;;
49722;SDS011;43484;43.608;1.458;2023-04-15T12:49:25;6.57;;;0.90;;
49722;SDS011;43484;43.608;1.458;2023-04-15T12:51:53;6.85;;;1.30;;
49722;SDS011;43484;43.608;1.458;2023-04-15T12:54:21;2.30;;;1.08;;
49722;SDS011;43484;43.608;1.458;2023-04-15T12:56:48;3.40;;;0.85;;
49722;SDS011;43484;43.608;1.458;2023-04-15T12:59:16;6.45;;;1.30;;
49722;SDS011;43484;43.608;1.458;2023-04-15T13:01:46;5.88;;;1.58;;
49722;SDS011;43484;43.608;1.458;2023-04-15T13:04:13;4.93;;;0.70;;
49722;SDS011;43484;43.608;1.458;2023-04-15T13:06:41;5.43;;;0.98;;
49722;SDS011;43484;43.608;1.458;2023-04-15T13:09:07;3.38;;;0.82;;
49722;SDS011;43484;43.608;1.458;2023-04-15T13:11:34;7.38;;;0.75;;
49722;SDS011;43484;43.608;1.458;2023-04-15T13:14:02;3.33;;;0.60;;
49722;SDS011;43484;43.608;1.458;2023-04-15T13:16:30;2.45;;;0.70;;
49722;SDS011;43484;43.608;1.458;2023-04-15T13:18:58;6.90;;;1.05;;
49722;SDS011;43484;43.608;1.458;2023-04-15T13:21:25;3.60;;;0.93;;
49722;SDS011;43484;43.608;1.458;2023-04-15T13:23:53;7.03;;;0.98;;
49722;SDS011;43484;43.608;1.458;2023-04-15T13:26:21;4.35;;;0.70;;
49722;SDS011;43484;43.608;1.458;2023-04-15T13:28:48;5.18;;;1.25;;
49722;SDS011;43484;43.608;1.458;2023-04-15T13:31:14;8.15;;;1.10;;
49722;SDS011;43484;43.608;1.458;2023-04-15T13:33:41;5.55;;;1.30;;
49722;SDS011;43484;43.608;1.458;2023-04-15T13:36:08;3.92;;;0.98;;
49722;SDS011;43484;43.608;1.458;2023-04-15T13:38:35;6.57;;;0.65;;
49722;SDS011;43484;43.608;1.458;2023-04-15T13:41:01;5.53;;;0.95;;
49722;SDS011;43484;43.608;1.458;2023-04-15T13:43:29;3.70;;;0.70;;
49722;SDS011;43484;43.608;1.458;2023-04-15T13:45:55;6.80;;;0.60;;
49722;SDS011;43484;43.608;1.458;2023-04-15T13:48:25;8.57;;;1.10;;
49722;SDS011;43484;43.608;1.458;2023-04-15T13:50:51;2.42;;;0.88;;
49722;SDS011;43484;43.608;1.458;2023-04-15T13:53:18;6.65;;;1.27;;
49722;SDS011;43484;43.608;1.458;2023-04-15T13:55:45;5.72;;;0.80;;
49722;SDS011;43484;43.608;1.458;2023-04-15T13:58:11;5.70;;;0.85;;
49722;SDS011;43484;43.608;1.458;2023-04-15T14:00:38;4.07;;;0.60;;
49722;SDS011;43484;43.608;1.458;2023-04-15T14:03:05;4.30;;;0.68;;
49722;SDS011;43484;43.608;1.458;2023-04-15T14:05:32;4.63;;;0.70;;
49722;SDS011;43484;43.608;1.458;2023-04-15T14:07:59;3.58;;;0.40;;
49722;SDS011;43484;43.608;1.458;2023-04-15T14:10:26;5.28;;;0.60;;
49722;SDS011;43484;43.608;1.458;2023-04-15T14:12:52;13.65;;;1.80;;
49722;SDS011;43484;43.608;1.458;2023-04-15T14:15:20;11.30;;;1.00;;
49722;SDS011;43484;43.608;1.458;2023-04-15T14:17:46;3.38;;;0.55;;
49722;SDS011;43484;43.608;1.458;2023-04-15T14:20:13;6.25;;;0.65;;
49722;SDS011;43484;43.608;1.458;2023-04-15T14:22:42;6.38;;;0.70;;
49722;SDS011;43484;43.608;1.458;2023-04-15T14:25:09;3.47;;;1.20;;
49722;SDS011;43484;43.608;1.458;2023-04-15T14:27:45;4.07;;;0.55;;
49722;SDS011;43484;43.608;1.458;2023-04-15T14:30:11;6.40;;;0.88;;
49722;SDS011;43484;43.608;1.458;2023-04-15T14:32:38;5.80;;;0.75;;
49722;SDS011;43484;43.608;1.458;2023-04-15T14:35:05;12.15;;;1.00;;
49722;SDS011;43484;43.608;1.458;2023-04-15T14:37:32;4.13;;;0.80;;
49722;SDS011;43484;43.608;1.458;2023-04-15T14:40:00;4.05;;;0.70;;
49722;SDS011;43484;43.608;1.458;2023-04-15T14:42:27;2.67;;;0.57;;
49722;SDS011;43484;43.608;1.458;2023-04-15T14:44:53;1.58;;;0.50;;
49722;SDS011;43484;43.608;1.458;2023-04-15T14:47:20;4.18;;;0.70;;
49722;SDS011;43484;43.608;1.458;2023-04-15T14:49:46;12.05;;;0.98;;
49722;SDS011;43484;43.608;1.458;2023-04-15T14:52:13;3.03;;;0.63;;
49722;SDS011;43484;43.608;1.458;2023-04-15T14:54:39;4.70;;;0.63;;
49722;SDS011;43484;43.608;1.458;2023-04-15T14:57:06;3.55;;;0.52;;
49722;SDS011;43484;43.608;1.458;2023-04-15T14:59:34;4.55;;;0.60;;
49722;SDS011;43484;43.608;1.458;2023-04-15T15:02:01;3.47;;;0.70;;
49722;SDS011;43484;43.608;1.458;2023-04-15T15:04:28;4.55;;;0.80;;
49722;SDS011;43484;43.608;1.458;2023-04-15T15:06:54;7.55;;;0.68;;
49722;SDS011;43484;43.608;1.458;2023-04-15T15:09:21;5.82;;;0.90;;